Brunswick, New York
Current Conditions -  °F | °C
As of 10:51 AM on Thursday 18 Dec 2014 (Local Time) from KALB Reporting Station
Overcast Overcast  
Wind Chill: 27°   Ceiling: 2500
Heat Index: 36°   Visibility: 10mi
Dew Point: 26°   Wind: 14mph
Humidity: 67%   Direction: 300°WNW
Pressure: 29.94"   Gusts: 25mph
Location:  42.7478°N, 73.6049°W
Report Text: KALB 181551Z 30012G22KT 10SM OVC025 02/M03 A2994 RMK AO2 SLP139 T00221033
Loading
Personal Weather Stations






























Interactive Weather Map New forecast layout! Learn more

10-Day Weather Forecast

Advertisements
Track Severe Weather on mobile